Time;durP1;ratioP1;P1;durP2;ratioP2;P2;SDS_P1;SDS_P2;PMS_P1;PMS_P2;Temp;Humidity;BMP_temperature;BMP_pressure;BME280_temperature;BME280_humidity;BME280_pressure;Samples;Min_cycle;Max_cycle;Signal;HPM_P1;HPM_P2
2023/10/24 00:00:07;;;;;;;14.70;12.70;;;;;;;-145.87;100.00;54973.53;2090827;28;20053;-60
2023/10/24 00:01:13;;;;;;;19.17;13.40;;;;;;;-145.87;100.00;54973.53;2090905;28;20374;-59
2023/10/24 00:02:15;;;;;;;16.10;13.18;;;;;;;-145.87;100.00;54973.53;2090949;28;20061;-59
2023/10/24 00:03:16;;;;;;;19.38;13.75;;;;;;;-145.87;100.00;54973.53;2090878;28;20062;-60
2023/10/24 00:04:17;;;;;;;16.35;12.68;;;;;;;-145.87;100.00;54973.53;2090895;28;20064;-60
2023/10/24 00:05:18;;;;;;;16.83;13.50;;;;;;;-145.87;100.00;54973.53;2090278;28;20057;-60
2023/10/24 00:06:19;;;;;;;16.70;12.77;;;;;;;-145.87;100.00;54973.53;2090741;28;20413;-60
2023/10/24 00:07:20;;;;;;;22.20;13.18;;;;;;;-145.87;100.00;54973.53;2090747;28;20033;-58
2023/10/24 00:08:21;;;;;;;18.00;13.35;;;;;;;-145.87;100.00;54973.53;2091058;28;20053;-58
2023/10/24 00:09:22;;;;;;;16.00;13.55;;;;;;;-145.87;100.00;54973.53;2090891;28;20051;-58
2023/10/24 00:10:24;;;;;;;18.30;13.52;;;;;;;-145.87;100.00;54973.53;2090820;28;20056;-58
2023/10/24 00:11:25;;;;;;;17.08;13.70;;;;;;;-145.87;100.00;54973.53;2090834;28;20041;-59
2023/10/24 00:12:26;;;;;;;21.13;13.68;;;;;;;-145.87;100.00;54973.53;2090868;28;20052;-60
2023/10/24 00:13:27;;;;;;;16.55;12.82;;;;;;;-145.87;100.00;54973.53;2090851;28;20045;-58
2023/10/24 00:14:28;;;;;;;16.02;13.77;;;;;;;-145.87;100.00;54973.53;2090448;28;20481;-58
2023/10/24 00:15:29;;;;;;;19.35;13.38;;;;;;;-145.87;100.00;54973.53;2091152;28;20045;-58
2023/10/24 00:16:30;;;;;;;18.13;13.30;;;;;;;-145.87;100.00;54973.53;2090948;28;20056;-60
2023/10/24 00:17:31;;;;;;;19.88;13.57;;;;;;;-145.87;100.00;54973.53;2090548;28;20048;-60
2023/10/24 00:18:32;;;;;;;18.02;14.73;;;;;;;-145.87;100.00;54973.53;2091042;28;20405;-59
2023/10/24 00:19:34;;;;;;;19.13;14.43;;;;;;;-145.87;100.00;54973.53;2090743;28;20048;-60
2023/10/24 00:20:35;;;;;;;17.65;12.88;;;;;;;-145.87;100.00;54973.53;2090691;28;20064;-59
2023/10/24 00:21:36;;;;;;;20.52;13.18;;;;;;;-145.87;100.00;54973.53;2090701;28;20040;-60
2023/10/24 00:22:37;;;;;;;17.25;12.25;;;;;;;-145.87;100.00;54973.53;2090153;28;20049;-58
2023/10/24 00:23:38;;;;;;;16.17;12.48;;;;;;;-145.87;100.00;54973.53;2090861;28;20040;-58
2023/10/24 00:24:40;;;;;;;18.70;14.23;;;;;;;-145.87;100.00;54973.53;2090870;28;20040;-60
2023/10/24 00:25:41;;;;;;;16.02;11.57;;;;;;;-145.87;100.00;54973.53;2090260;28;20386;-60
2023/10/24 00:26:42;;;;;;;15.98;11.57;;;;;;;-145.87;100.00;54973.53;2090538;28;20501;-60
2023/10/24 00:27:43;;;;;;;15.93;11.48;;;;;;;-145.87;100.00;54973.53;2090261;28;20049;-61
2023/10/24 00:28:44;;;;;;;16.70;13.70;;;;;;;-145.87;100.00;54973.53;2090651;28;20059;-60
2023/10/24 00:29:45;;;;;;;18.30;14.45;;;;;;;-145.87;100.00;54973.53;2090603;28;20036;-58
2023/10/24 00:30:46;;;;;;;20.27;14.02;;;;;;;-145.87;100.00;54973.53;2090879;28;20424;-58
2023/10/24 00:31:47;;;;;;;19.15;13.73;;;;;;;-145.87;100.00;54973.53;2090699;28;20049;-58
2023/10/24 00:32:49;;;;;;;16.35;11.68;;;;;;;-145.87;100.00;54973.53;2090718;28;20048;-58
2023/10/24 00:33:50;;;;;;;16.85;12.00;;;;;;;-145.87;100.00;54973.53;2089892;28;20040;-58
2023/10/24 00:34:51;;;;;;;19.35;11.88;;;;;;;-145.87;100.00;54973.53;2089933;28;20045;-60
2023/10/24 00:35:52;;;;;;;17.63;12.57;;;;;;;-145.87;100.00;54973.53;2090613;28;20057;-60
2023/10/24 00:36:54;;;;;;;18.63;15.18;;;;;;;-145.87;100.00;54973.53;2090400;28;20060;-60
2023/10/24 00:37:55;;;;;;;18.63;13.52;;;;;;;-145.87;100.00;54973.53;2090331;28;20489;-59
2023/10/24 00:38:56;;;;;;;19.45;13.93;;;;;;;-145.87;100.00;54973.53;2090729;28;20057;-60
2023/10/24 00:39:57;;;;;;;18.70;15.05;;;;;;;-145.87;100.00;54973.53;2090521;28;20057;-58
2023/10/24 00:40:58;;;;;;;19.65;13.95;;;;;;;-145.87;100.00;54973.53;2090167;28;20056;-60
2023/10/24 00:41:59;;;;;;;17.85;12.98;;;;;;;-145.87;100.00;54973.53;2081805;28;20442;-60
2023/10/24 00:43:06;;;;;;;19.30;14.93;;;;;;;-145.87;100.00;54973.53;2088793;28;20052;-60
2023/10/24 00:44:08;;;;;;;19.80;15.57;;;;;;;-145.87;100.00;54973.53;2097479;28;20052;-59
2023/10/24 00:45:09;;;;;;;19.10;14.55;;;;;;;-145.87;100.00;54973.53;2089925;28;20052;-59
2023/10/24 00:46:10;;;;;;;20.98;13.75;;;;;;;-145.87;100.00;54973.53;2089750;28;20378;-59
2023/10/24 00:47:11;;;;;;;18.52;14.07;;;;;;;-145.87;100.00;54973.53;2090577;28;20516;-59
2023/10/24 00:48:13;;;;;;;19.27;13.55;;;;;;;-145.87;100.00;54973.53;2081908;28;20045;-59
2023/10/24 00:49:14;;;;;;;23.90;16.58;;;;;;;-145.87;100.00;54973.53;2081830;28;20049;-60
2023/10/24 00:50:15;;;;;;;20.90;14.88;;;;;;;-145.87;100.00;54973.53;2090507;28;20044;-60
2023/10/24 00:51:16;;;;;;;21.30;15.40;;;;;;;-145.87;100.00;54973.53;2073720;28;20417;-60
2023/10/24 00:52:17;;;;;;;22.10;15.57;;;;;;;-145.87;100.00;54973.53;2065656;28;20043;-59
2023/10/24 00:53:19;;;;;;;21.83;15.93;;;;;;;-145.87;100.00;54973.53;2082005;28;20418;-59
2023/10/24 00:54:20;;;;;;;23.73;17.85;;;;;;;-145.87;100.00;54973.53;2089979;28;20060;-60
2023/10/24 00:55:22;;;;;;;20.77;17.20;;;;;;;-145.87;100.00;54973.53;2090558;28;20432;-59
2023/10/24 00:56:23;;;;;;;29.45;16.15;;;;;;;-145.87;100.00;54973.53;2090307;28;20045;-60
2023/10/24 00:57:25;;;;;;;23.17;16.83;;;;;;;-145.87;100.00;54973.53;2089615;28;20060;-59
2023/10/24 00:58:26;;;;;;;21.77;17.45;;;;;;;-145.87;100.00;54973.53;2089891;28;20056;-59
2023/10/24 00:59:27;;;;;;;21.55;15.95;;;;;;;-145.87;100.00;54973.53;2089570;28;20136;-60
2023/10/24 01:00:28;;;;;;;25.67;17.92;;;;;;;-145.87;100.00;54973.53;2081759;28;20430;-60
2023/10/24 01:01:29;;;;;;;22.05;16.85;;;;;;;-145.87;100.00;54973.53;2082106;28;20045;-59
2023/10/24 01:02:30;;;;;;;23.35;17.00;;;;;;;-145.87;100.00;54973.53;2089489;28;20045;-60
2023/10/24 01:03:32;;;;;;;21.40;17.15;;;;;;;-145.87;100.00;54973.53;2097853;28;20056;-60
2023/10/24 01:04:33;;;;;;;23.52;17.17;;;;;;;-145.87;100.00;54973.53;2089945;28;20064;-60
2023/10/24 01:05:34;;;;;;;22.13;17.77;;;;;;;-145.87;100.00;54973.53;2081624;28;20045;-59
2023/10/24 01:06:35;;;;;;;24.02;18.75;;;;;;;-145.87;100.00;54973.53;2073613;28;20049;-59
2023/10/24 01:07:36;;;;;;;23.00;17.48;;;;;;;-145.87;100.00;54973.53;2081734;28;20109;-59
2023/10/24 01:08:37;;;;;;;23.55;18.05;;;;;;;-145.87;100.00;54973.53;2089667;28;20041;-60
2023/10/24 01:09:38;;;;;;;23.58;18.48;;;;;;;-145.87;100.00;54973.53;2089441;28;20048;-59
2023/10/24 01:10:40;;;;;;;22.10;15.90;;;;;;;-145.87;100.00;54973.53;2082179;28;20057;-59
2023/10/24 01:11:41;;;;;;;25.05;19.60;;;;;;;-145.87;100.00;54973.53;2089443;28;20060;-59
2023/10/24 01:12:43;;;;;;;22.50;18.77;;;;;;;-145.87;100.00;54973.53;2090412;28;20394;-60
2023/10/24 01:13:44;;;;;;;22.05;19.02;;;;;;;-145.87;100.00;54973.53;2089218;28;20517;-59
2023/10/24 01:14:45;;;;;;;28.13;19.73;;;;;;;-145.87;100.00;54973.53;2081346;28;20048;-59
2023/10/24 01:15:46;;;;;;;22.25;18.58;;;;;;;-145.87;100.00;54973.53;2089541;28;20057;-60
2023/10/24 01:16:47;;;;;;;20.70;16.52;;;;;;;-145.87;100.00;54973.53;2090257;28;20052;-60
2023/10/24 01:17:52;;;;;;;29.13;19.83;;;;;;;-145.87;100.00;54973.53;2089290;28;20476;-59
2023/10/24 01:18:53;;;;;;;30.23;18.63;;;;;;;-145.87;100.00;54973.53;2090578;28;20037;-60
2023/10/24 01:19:54;;;;;;;20.67;17.13;;;;;;;-145.87;100.00;54973.53;2090194;28;20064;-60
2023/10/24 01:20:55;;;;;;;21.52;17.40;;;;;;;-145.87;100.00;54973.53;2090211;28;20064;-60
2023/10/24 01:21:56;;;;;;;21.90;16.17;;;;;;;-145.87;100.00;54973.53;2081261;28;20049;-59
2023/10/24 01:22:57;;;;;;;23.92;16.45;;;;;;;-145.87;100.00;54973.53;2081289;28;20109;-59
2023/10/24 01:23:58;;;;;;;20.75;16.73;;;;;;;-145.87;100.00;54973.53;2089577;28;20060;-59
2023/10/24 01:24:59;;;;;;;23.30;16.45;;;;;;;-145.87;100.00;54973.53;2089756;28;20044;-60
2023/10/24 01:26:01;;;;;;;21.67;18.40;;;;;;;-145.87;100.00;54973.53;2089356;28;20060;-59
2023/10/24 01:27:02;;;;;;;23.42;17.40;;;;;;;-145.87;100.00;54973.53;2081106;28;20057;-59
2023/10/24 01:28:03;;;;;;;23.20;18.15;;;;;;;-145.87;100.00;54973.53;2081636;28;20406;-60
2023/10/24 01:29:04;;;;;;;22.88;17.30;;;;;;;-145.87;100.00;54973.53;2081088;28;20057;-60
2023/10/24 01:30:06;;;;;;;24.13;17.98;;;;;;;-145.87;100.00;54973.53;2089570;28;20060;-59
2023/10/24 01:31:07;;;;;;;22.42;16.25;;;;;;;-145.87;100.00;54973.53;2090343;28;20405;-60
2023/10/24 01:32:08;;;;;;;25.92;17.02;;;;;;;-145.87;100.00;54973.53;2090063;28;20041;-59
2023/10/24 01:33:09;;;;;;;22.67;16.98;;;;;;;-145.87;100.00;54973.53;2089747;28;20064;-60
2023/10/24 01:34:10;;;;;;;22.55;17.65;;;;;;;-145.87;100.00;54973.53;2089688;28;20057;-60
2023/10/24 01:35:12;;;;;;;23.15;16.63;;;;;;;-145.87;100.00;54973.53;2089654;28;20048;-60
2023/10/24 01:36:13;;;;;;;22.48;16.90;;;;;;;-145.87;100.00;54973.53;2090189;28;20051;-59
2023/10/24 01:37:14;;;;;;;23.00;17.77;;;;;;;-145.87;100.00;54973.53;2089734;28;20053;-60
2023/10/24 01:38:15;;;;;;;25.17;18.35;;;;;;;-145.87;100.00;54973.53;2089231;28;20139;-59
2023/10/24 01:39:16;;;;;;;23.98;16.70;;;;;;;-145.87;100.00;54973.53;2090112;28;20053;-59
2023/10/24 01:40:17;;;;;;;23.95;18.33;;;;;;;-145.87;100.00;54973.53;2090007;28;20056;-59
2023/10/24 01:41:19;;;;;;;26.10;18.05;;;;;;;-145.87;100.00;54973.53;2089708;28;20409;-59
2023/10/24 01:42:20;;;;;;;30.83;18.25;;;;;;;-145.87;100.00;54973.53;2081317;28;20065;-59
2023/10/24 01:43:21;;;;;;;25.13;18.77;;;;;;;-145.87;100.00;54973.53;2089574;28;20057;-59
2023/10/24 01:44:22;;;;;;;24.08;19.10;;;;;;;-145.87;100.00;54973.53;2090385;28;20420;-59
2023/10/24 01:45:23;;;;;;;21.27;16.77;;;;;;;-145.87;100.00;54973.53;2090105;28;20040;-59
2023/10/24 01:46:24;;;;;;;23.02;18.08;;;;;;;-145.87;100.00;54973.53;2090311;28;20094;-59
2023/10/24 01:47:26;;;;;;;22.83;18.27;;;;;;;-145.87;100.00;54973.53;2090095;28;20057;-60
2023/10/24 01:48:27;;;;;;;21.38;17.63;;;;;;;-145.87;100.00;54973.53;2090029;28;20056;-59
2023/10/24 01:49:28;;;;;;;23.35;17.63;;;;;;;-145.87;100.00;54973.53;2090240;28;20060;-59
2023/10/24 01:50:29;;;;;;;23.50;18.02;;;;;;;-145.87;100.00;54973.53;2089412;28;20485;-59
2023/10/24 01:51:30;;;;;;;24.63;18.80;;;;;;;-145.87;100.00;54973.53;2089198;28;20048;-60
2023/10/24 01:52:31;;;;;;;22.50;17.42;;;;;;;-145.87;100.00;54973.53;2089790;28;20045;-59
2023/10/24 01:53:32;;;;;;;26.27;18.55;;;;;;;-145.87;100.00;54973.53;2089623;28;20056;-59
2023/10/24 01:54:33;;;;;;;21.50;17.40;;;;;;;-145.87;100.00;54973.53;2090153;28;20049;-60
2023/10/24 01:55:35;;;;;;;24.48;18.05;;;;;;;-145.87;100.00;54973.53;2088967;28;20417;-59
2023/10/24 01:56:36;;;;;;;24.38;18.20;;;;;;;-145.87;100.00;54973.53;2081251;28;20049;-60
2023/10/24 01:57:37;;;;;;;23.05;16.73;;;;;;;-145.87;100.00;54973.53;2081240;28;20448;-59
2023/10/24 01:58:38;;;;;;;24.52;15.27;;;;;;;-145.87;100.00;54973.53;2081809;28;20046;-60
2023/10/24 01:59:40;;;;;;;20.05;14.45;;;;;;;-145.87;100.00;54973.53;2081787;28;20048;-60
2023/10/24 02:00:41;;;;;;;26.88;17.05;;;;;;;-145.87;100.00;54973.53;2081195;28;20041;-59
2023/10/24 02:01:42;;;;;;;24.85;18.30;;;;;;;-145.87;100.00;54973.53;2089697;28;20049;-60
2023/10/24 02:02:43;;;;;;;25.65;18.63;;;;;;;-145.87;100.00;54973.53;2090250;28;20064;-59
2023/10/24 02:03:44;;;;;;;22.65;17.63;;;;;;;-145.87;100.00;54973.53;2090169;28;20410;-60
2023/10/24 02:04:45;;;;;;;21.05;17.38;;;;;;;-145.87;100.00;54973.53;2090123;28;20493;-60
2023/10/24 02:05:46;;;;;;;22.10;17.58;;;;;;;-145.87;100.00;54973.53;2090146;28;20044;-60
2023/10/24 02:06:48;;;;;;;22.85;18.23;;;;;;;-145.87;100.00;54973.53;2090030;28;20033;-60
2023/10/24 02:07:49;;;;;;;23.33;18.17;;;;;;;-145.87;100.00;54973.53;2090099;28;20374;-59
2023/10/24 02:08:50;;;;;;;23.23;17.83;;;;;;;-145.87;100.00;54973.53;2090180;28;20052;-59
2023/10/24 02:09:52;;;;;;;26.13;18.83;;;;;;;-145.87;100.00;54973.53;2089117;28;20045;-60
2023/10/24 02:10:53;;;;;;;20.33;17.77;;;;;;;-145.87;100.00;54973.53;2089247;28;20071;-59
2023/10/24 02:11:54;;;;;;;22.15;18.02;;;;;;;-145.87;100.00;54973.53;2090112;28;20389;-60
2023/10/24 02:12:55;;;;;;;23.45;18.42;;;;;;;-145.87;100.00;54973.53;2089985;28;20056;-60
2023/10/24 02:13:56;;;;;;;24.05;16.88;;;;;;;-145.87;100.00;54973.53;2090101;28;20060;-59
2023/10/24 02:14:57;;;;;;;23.15;16.92;;;;;;;-145.87;100.00;54973.53;2090081;28;20040;-60
2023/10/24 02:15:58;;;;;;;21.73;17.88;;;;;;;-145.87;100.00;54973.53;2089074;28;20057;-60
2023/10/24 02:16:59;;;;;;;20.50;16.70;;;;;;;-145.87;100.00;54973.53;2080505;28;20534;-60
2023/10/24 02:18:00;;;;;;;18.67;13.73;;;;;;;-145.87;100.00;54973.53;2081167;28;20053;-59
2023/10/24 02:19:02;;;;;;;23.30;17.83;;;;;;;-145.87;100.00;54973.53;2089309;28;20068;-59
2023/10/24 02:20:04;;;;;;;23.63;18.08;;;;;;;-145.87;100.00;54973.53;2089688;28;20059;-60
2023/10/24 02:21:07;;;;;;;24.27;17.70;;;;;;;-145.87;100.00;54973.53;2088824;28;20176;-60
2023/10/24 02:22:08;;;;;;;21.02;16.80;;;;;;;-145.87;100.00;54973.53;2081151;28;20057;-59
2023/10/24 02:23:09;;;;;;;24.48;17.42;;;;;;;-145.87;100.00;54973.53;2081041;28;20104;-60
2023/10/24 02:24:10;;;;;;;23.52;17.60;;;;;;;-145.87;100.00;54973.53;2089179;28;20069;-60
2023/10/24 02:25:11;;;;;;;23.55;17.48;;;;;;;-145.87;100.00;54973.53;2090564;28;20067;-59
2023/10/24 02:26:13;;;;;;;22.02;16.15;;;;;;;-145.87;100.00;54973.53;2090916;28;20497;-60
2023/10/24 02:27:14;;;;;;;20.88;15.30;;;;;;;-145.87;100.00;54973.53;2090668;28;20045;-60
2023/10/24 02:28:15;;;;;;;21.92;15.48;;;;;;;-145.87;100.00;54973.53;2090659;28;20044;-59
2023/10/24 02:29:17;;;;;;;22.38;14.57;;;;;;;-145.87;100.00;54973.53;2091422;28;20053;-60
2023/10/24 02:30:18;;;;;;;21.95;15.85;;;;;;;-145.87;100.00;54973.53;2091907;28;20428;-59
2023/10/24 02:31:19;;;;;;;19.08;14.98;;;;;;;-145.87;100.00;54973.53;2092259;28;20049;-62
2023/10/24 02:32:21;;;;;;;20.15;16.73;;;;;;;-145.87;100.00;54973.53;2092566;28;20056;-60
2023/10/24 02:33:22;;;;;;;18.98;15.55;;;;;;;-145.87;100.00;54973.53;2092181;28;20057;-59
2023/10/24 02:34:24;;;;;;;26.40;18.05;;;;;;;-145.87;100.00;54973.53;2092464;28;20057;-59
2023/10/24 02:35:27;;;;;;;23.08;16.08;;;;;;;-145.87;100.00;54973.53;2092501;28;20061;-63
2023/10/24 02:36:28;;;;;;;23.90;17.88;;;;;;;-145.87;100.00;54973.53;2092268;28;20056;-60
2023/10/24 02:37:29;;;;;;;21.38;17.27;;;;;;;-145.87;100.00;54973.53;2091640;28;20047;-60
2023/10/24 02:38:30;;;;;;;22.42;17.10;;;;;;;-145.87;100.00;54973.53;2091103;28;20053;-59
2023/10/24 02:39:31;;;;;;;22.80;17.20;;;;;;;-145.87;100.00;54973.53;2092172;28;20397;-59
2023/10/24 02:40:32;;;;;;;24.52;17.35;;;;;;;-145.87;100.00;54973.53;2092907;28;20041;-64
2023/10/24 02:41:34;;;;;;;23.60;17.30;;;;;;;-145.87;100.00;54973.53;2092092;28;20064;-59
2023/10/24 02:42:35;;;;;;;26.23;18.05;;;;;;;-145.87;100.00;54973.53;2091856;28;20049;-59
2023/10/24 02:43:36;;;;;;;23.55;18.38;;;;;;;-145.87;100.00;54973.53;2092349;28;20370;-60
2023/10/24 02:44:37;;;;;;;22.45;18.77;;;;;;;-145.87;100.00;54973.53;2091002;28;20056;-60
2023/10/24 02:45:38;;;;;;;24.70;19.65;;;;;;;-145.87;100.00;54973.53;2090510;28;20053;-59
2023/10/24 02:46:39;;;;;;;25.55;18.30;;;;;;;-145.87;100.00;54973.53;2091578;28;20055;-59
2023/10/24 02:47:40;;;;;;;25.20;18.40;;;;;;;-145.87;100.00;54973.53;2091524;28;20386;-60
2023/10/24 02:48:41;;;;;;;24.13;17.45;;;;;;;-145.87;100.00;54973.53;2091435;28;20052;-59
2023/10/24 02:49:43;;;;;;;24.35;17.08;;;;;;;-145.87;100.00;54973.53;2091587;28;20045;-61
2023/10/24 02:50:44;;;;;;;25.08;19.63;;;;;;;-145.87;100.00;54973.53;2091780;28;20416;-60
2023/10/24 02:51:45;;;;;;;21.13;16.02;;;;;;;-145.87;100.00;54973.53;2091816;28;20045;-59
2023/10/24 02:52:46;;;;;;;21.20;17.23;;;;;;;-145.87;100.00;54973.53;2091642;28;20064;-59
2023/10/24 02:53:47;;;;;;;22.50;15.07;;;;;;;-145.87;100.00;54973.53;2092011;28;20049;-59
2023/10/24 02:54:49;;;;;;;25.08;18.65;;;;;;;-145.87;100.00;54973.53;2090197;28;20436;-59
2023/10/24 02:55:50;;;;;;;27.13;19.95;;;;;;;-145.87;100.00;54973.53;2090676;28;20374;-59
2023/10/24 02:56:51;;;;;;;23.73;18.42;;;;;;;-145.87;100.00;54973.53;2082195;28;20056;-60
2023/10/24 02:57:52;;;;;;;27.35;19.40;;;;;;;-145.87;100.00;54973.53;2082801;28;20057;-59
2023/10/24 02:58:53;;;;;;;24.50;17.58;;;;;;;-145.87;100.00;54973.53;2091200;28;20579;-59
2023/10/24 02:59:55;;;;;;;23.05;16.65;;;;;;;-145.87;100.00;54973.53;2091006;28;20049;-59
2023/10/24 03:01:01;;;;;;;23.83;18.83;;;;;;;-145.87;100.00;54973.53;2091363;28;20049;-60
2023/10/24 03:02:02;;;;;;;26.25;17.67;;;;;;;-145.87;100.00;54973.53;2091547;28;20481;-59
2023/10/24 03:03:03;;;;;;;29.73;20.48;;;;;;;-145.87;100.00;54973.53;2091348;28;20531;-59
2023/10/24 03:04:04;;;;;;;29.27;20.15;;;;;;;-145.87;100.00;54973.53;2091244;28;20057;-59
2023/10/24 03:05:06;;;;;;;25.63;18.73;;;;;;;-145.87;100.00;54973.53;2091169;28;20064;-59
2023/10/24 03:06:17;;;;;;;28.08;17.35;;;;;;;-145.87;100.00;54973.53;2091408;28;20037;-60
2023/10/24 03:07:18;;;;;;;24.17;17.27;;;;;;;-145.87;100.00;54973.53;2090852;28;20053;-60
2023/10/24 03:08:19;;;;;;;26.42;17.75;;;;;;;-145.87;100.00;54973.53;2090767;28;20040;-59
2023/10/24 03:09:20;;;;;;;25.45;17.02;;;;;;;-145.87;100.00;54973.53;2091307;28;20481;-59
2023/10/24 03:10:21;;;;;;;20.77;16.80;;;;;;;-145.87;100.00;54973.53;2090343;28;20400;-59
2023/10/24 03:11:23;;;;;;;30.27;20.50;;;;;;;-145.87;100.00;54973.53;2090712;28;20049;-60
2023/10/24 03:12:24;;;;;;;27.67;20.17;;;;;;;-145.87;100.00;54973.53;2089918;28;20053;-59
2023/10/24 03:13:25;;;;;;;30.98;21.25;;;;;;;-145.87;100.00;54973.53;2090772;28;20507;-59
2023/10/24 03:14:26;;;;;;;29.52;20.40;;;;;;;-145.87;100.00;54973.53;2091980;28;20488;-60
2023/10/24 03:15:27;;;;;;;27.63;21.85;;;;;;;-145.87;100.00;54973.53;2090354;28;20056;-60
2023/10/24 03:16:28;;;;;;;28.77;21.77;;;;;;;-145.87;100.00;54973.53;2090919;28;20049;-60
2023/10/24 03:17:29;;;;;;;28.60;22.40;;;;;;;-145.87;100.00;54973.53;2091301;28;20052;-60
2023/10/24 03:18:31;;;;;;;28.42;21.17;;;;;;;-145.87;100.00;54973.53;2091520;28;20396;-59
2023/10/24 03:19:32;;;;;;;26.92;20.00;;;;;;;-145.87;100.00;54973.53;2090880;28;20045;-60
2023/10/24 03:20:33;;;;;;;27.67;21.23;;;;;;;-145.87;100.00;54973.53;2091291;28;20052;-59
2023/10/24 03:21:34;;;;;;;29.02;21.17;;;;;;;-145.87;100.00;54973.53;2091209;28;20053;-59
2023/10/24 03:22:36;;;;;;;32.78;21.15;;;;;;;-145.87;100.00;54973.53;2090304;28;20060;-60
2023/10/24 03:23:44;;;;;;;30.42;22.08;;;;;;;-145.87;100.00;54973.53;2082533;28;20048;-60
2023/10/24 03:24:45;;;;;;;31.00;22.02;;;;;;;-145.87;100.00;54973.53;2090494;28;20504;-60
2023/10/24 03:25:46;;;;;;;29.15;21.60;;;;;;;-145.87;100.00;54973.53;2091184;28;20057;-60
2023/10/24 03:26:47;;;;;;;28.02;20.95;;;;;;;-145.87;100.00;54973.53;2091227;28;20044;-59
2023/10/24 03:27:51;;;;;;;25.55;20.17;;;;;;;-145.87;100.00;54973.53;2090092;28;20456;-60
2023/10/24 03:28:52;;;;;;;30.08;20.00;;;;;;;-145.87;100.00;54973.53;2090595;28;20045;-59
2023/10/24 03:29:55;;;;;;;29.75;22.40;;;;;;;-145.87;100.00;54973.53;2090783;28;20452;-60
2023/10/24 03:31:01;;;;;;;31.25;22.58;;;;;;;-145.87;100.00;54973.53;2090146;28;20056;-60
2023/10/24 03:32:02;;;;;;;27.30;22.38;;;;;;;-145.87;100.00;54973.53;2091048;28;20057;-60
2023/10/24 03:33:03;;;;;;;28.75;22.65;;;;;;;-145.87;100.00;54973.53;2091182;28;20048;-60
2023/10/24 03:34:06;;;;;;;30.30;20.98;;;;;;;-145.87;100.00;54973.53;2091187;28;20075;-59
2023/10/24 03:35:07;;;;;;;30.20;22.17;;;;;;;-145.87;100.00;54973.53;2091004;28;20056;-60
2023/10/24 03:36:12;;;;;;;30.05;22.55;;;;;;;-145.87;100.00;54973.53;2090873;28;20048;-60
2023/10/24 03:37:14;;;;;;;31.27;21.25;;;;;;;-145.87;100.00;54973.53;2090936;28;20051;-59
2023/10/24 03:38:15;;;;;;;29.35;22.27;;;;;;;-145.87;100.00;54973.53;2091130;28;20051;-60
2023/10/24 03:39:16;;;;;;;27.98;19.83;;;;;;;-145.87;100.00;54973.53;2091231;28;20040;-59
2023/10/24 03:40:17;;;;;;;29.48;21.10;;;;;;;-145.87;100.00;54973.53;2090727;28;20044;-59
2023/10/24 03:41:18;;;;;;;23.85;17.45;;;;;;;-145.87;100.00;54973.53;2091276;28;20453;-60
2023/10/24 03:42:19;;;;;;;26.90;19.00;;;;;;;-145.87;100.00;54973.53;2090960;28;20056;-59
2023/10/24 03:43:21;;;;;;;33.45;23.42;;;;;;;-145.87;100.00;54973.53;2091027;28;20045;-60
2023/10/24 03:44:23;;;;;;;27.00;20.23;;;;;;;-145.87;100.00;54973.53;2091130;28;20090;-60
2023/10/24 03:45:24;;;;;;;30.50;23.02;;;;;;;-145.87;100.00;54973.53;2091036;28;20049;-60
2023/10/24 03:46:25;;;;;;;28.77;21.05;;;;;;;-145.87;100.00;54973.53;2090866;28;20167;-60
2023/10/24 03:47:26;;;;;;;31.50;22.33;;;;;;;-145.87;100.00;54973.53;2090957;28;20493;-60
2023/10/24 03:48:27;;;;;;;30.15;21.50;;;;;;;-145.87;100.00;54973.53;2091158;28;20064;-60
2023/10/24 03:49:28;;;;;;;25.52;17.25;;;;;;;-145.87;100.00;54973.53;2091071;28;20053;-60
2023/10/24 03:50:30;;;;;;;25.05;19.48;;;;;;;-145.87;100.00;54973.53;2091124;28;20045;-60
2023/10/24 03:51:31;;;;;;;28.92;17.70;;;;;;;-145.87;100.00;54973.53;2091157;28;20396;-59
2023/10/24 03:52:32;;;;;;;25.50;17.67;;;;;;;-145.87;100.00;54973.53;2091046;28;20033;-60
2023/10/24 03:53:33;;;;;;;24.30;19.20;;;;;;;-145.87;100.00;54973.53;2090953;28;20060;-59
2023/10/24 03:54:35;;;;;;;30.08;21.13;;;;;;;-145.87;100.00;54973.53;2090953;28;20041;-60
2023/10/24 03:55:36;;;;;;;25.15;20.25;;;;;;;-145.87;100.00;54973.53;2091140;28;20052;-60
2023/10/24 03:56:37;;;;;;;26.38;20.17;;;;;;;-145.87;100.00;54973.53;2090808;28;20469;-59
2023/10/24 03:57:41;;;;;;;27.42;18.58;;;;;;;-145.87;100.00;54973.53;2091253;28;20045;-60
2023/10/24 03:58:42;;;;;;;27.55;20.58;;;;;;;-145.87;100.00;54973.53;2090758;28;20060;-60
2023/10/24 03:59:43;;;;;;;29.13;22.73;;;;;;;-145.87;100.00;54973.53;2090872;28;20048;-60
2023/10/24 04:00:44;;;;;;;30.80;22.20;;;;;;;-145.87;100.00;54973.53;2090743;28;20506;-60
2023/10/24 04:01:45;;;;;;;31.83;21.33;;;;;;;-145.87;100.00;54973.53;2091090;28;20033;-60
2023/10/24 04:02:50;;;;;;;28.95;21.50;;;;;;;-145.87;100.00;54973.53;2090985;28;20052;-59
2023/10/24 04:03:52;;;;;;;29.85;22.23;;;;;;;-145.87;100.00;54973.53;2090730;28;20053;-60
2023/10/24 04:04:53;;;;;;;27.67;21.27;;;;;;;-145.87;100.00;54973.53;2090791;28;20056;-60
2023/10/24 04:05:54;;;;;;;29.05;22.02;;;;;;;-145.87;100.00;54973.53;2091127;28;20049;-59
2023/10/24 04:06:56;;;;;;;28.98;21.13;;;;;;;-145.87;100.00;54973.53;2091013;28;20052;-60
2023/10/24 04:07:57;;;;;;;29.73;20.42;;;;;;;-145.87;100.00;54973.53;2091074;28;20064;-60
2023/10/24 04:09:02;;;;;;;26.63;20.00;;;;;;;-145.87;100.00;54973.53;2091096;28;20052;-59
2023/10/24 04:10:04;;;;;;;28.00;21.95;;;;;;;-145.87;100.00;54973.53;2090512;28;20053;-60
2023/10/24 04:11:13;;;;;;;30.73;22.10;;;;;;;-145.87;100.00;54973.53;2090769;28;20057;-60
2023/10/24 04:12:14;;;;;;;28.17;21.88;;;;;;;-145.87;100.00;54973.53;2090799;28;20052;-60
2023/10/24 04:13:15;;;;;;;31.35;21.08;;;;;;;-145.87;100.00;54973.53;2091210;28;20052;-60
2023/10/24 04:14:16;;;;;;;30.38;21.45;;;;;;;-145.87;100.00;54973.53;2090925;28;20041;-60
2023/10/24 04:15:17;;;;;;;28.85;21.65;;;;;;;-145.87;100.00;54973.53;2090999;28;20452;-60
2023/10/24 04:16:18;;;;;;;33.03;21.73;;;;;;;-145.87;100.00;54973.53;2090438;28;20052;-60
2023/10/24 04:17:19;;;;;;;28.10;21.35;;;;;;;-145.87;100.00;54973.53;2090672;28;20405;-60
2023/10/24 04:18:21;;;;;;;28.67;21.15;;;;;;;-145.87;100.00;54973.53;2090885;28;20041;-59
2023/10/24 04:19:22;;;;;;;28.63;22.52;;;;;;;-145.87;100.00;54973.53;2090582;28;20040;-59
2023/10/24 04:20:23;;;;;;;30.85;22.20;;;;;;;-145.87;100.00;54973.53;2090872;28;20064;-59
2023/10/24 04:21:24;;;;;;;26.75;20.75;;;;;;;-145.87;100.00;54973.53;2090944;28;20040;-59
2023/10/24 04:22:25;;;;;;;27.60;19.70;;;;;;;-145.87;100.00;54973.53;2090824;28;20071;-60
2023/10/24 04:23:26;;;;;;;31.98;20.95;;;;;;;-145.87;100.00;54973.53;2090882;28;20489;-60
2023/10/24 04:24:27;;;;;;;26.35;21.02;;;;;;;-145.87;100.00;54973.53;2090720;28;20049;-60
2023/10/24 04:25:30;;;;;;;28.60;21.38;;;;;;;-145.87;100.00;54973.53;2090829;28;20055;-59
2023/10/24 04:26:31;;;;;;;30.90;21.98;;;;;;;-145.87;100.00;54973.53;2090508;28;20410;-59
2023/10/24 04:27:32;;;;;;;31.83;21.63;;;;;;;-145.87;100.00;54973.53;2091664;28;20056;-59
2023/10/24 04:28:33;;;;;;;29.35;21.88;;;;;;;-145.87;100.00;54973.53;2090609;28;20048;-59
2023/10/24 04:29:34;;;;;;;30.55;21.70;;;;;;;-145.87;100.00;54973.53;2090915;28;20464;-60
2023/10/24 04:30:38;;;;;;;32.05;21.35;;;;;;;-145.87;100.00;54973.53;2090810;28;20041;-59
2023/10/24 04:31:39;;;;;;;32.78;21.27;;;;;;;-145.87;100.00;54973.53;2090528;28;20047;-60
2023/10/24 04:32:40;;;;;;;30.80;22.55;;;;;;;-145.87;100.00;54973.53;2090905;28;20049;-60